createdAt,value
2023-05-15T00:02:02.316Z,100.00
2023-05-15T00:04:29.345Z,100.00
2023-05-15T00:06:56.321Z,100.00
2023-05-15T00:09:23.243Z,100.00
2023-05-15T00:11:51.303Z,100.00
2023-05-15T00:14:18.317Z,100.00
2023-05-15T00:16:45.315Z,100.00
2023-05-15T00:19:12.367Z,100.00
2023-05-15T00:21:39.424Z,100.00
2023-05-15T00:24:06.594Z,100.00
2023-05-15T00:26:33.618Z,100.00
2023-05-15T00:29:00.701Z,100.00
2023-05-15T00:31:27.696Z,100.00
2023-05-15T00:33:55.104Z,100.00
2023-05-15T00:36:24.206Z,100.00
2023-05-15T00:38:51.290Z,100.00
2023-05-15T00:41:19.145Z,100.00
2023-05-15T00:43:46.817Z,100.00
2023-05-15T00:46:14.291Z,100.00
2023-05-15T00:48:44.396Z,100.00
2023-05-15T00:51:12.465Z,100.00
2023-05-15T00:53:40.546Z,100.00
2023-05-15T00:56:09.351Z,100.00
2023-05-15T00:58:38.047Z,100.00
2023-05-15T01:01:08.246Z,100.00
2023-05-15T01:03:36.744Z,100.00
2023-05-15T01:06:04.147Z,100.00
2023-05-15T01:08:47.083Z,100.00
2023-05-15T01:11:16.146Z,100.00
2023-05-15T01:13:43.923Z,100.00
2023-05-15T01:16:11.463Z,100.00
2023-05-15T01:18:38.668Z,100.00
2023-05-15T01:22:07.121Z,100.00
2023-05-15T01:25:19.478Z,100.00
2023-05-15T01:27:52.930Z,100.00
2023-05-15T01:30:29.298Z,100.00
2023-05-15T01:33:32.833Z,100.00
2023-05-15T01:36:14.960Z,100.00
2023-05-15T01:38:52.037Z,100.00
2023-05-15T01:41:32.685Z,100.00
2023-05-15T01:44:29.199Z,100.00
2023-05-15T01:46:59.899Z,100.00
2023-05-15T01:49:29.598Z,100.00
2023-05-15T01:52:10.249Z,100.00
2023-05-15T01:54:38.958Z,100.00
2023-05-15T01:57:09.164Z,100.00
2023-05-15T01:59:37.479Z,100.00
2023-05-15T02:02:08.128Z,100.00
2023-05-15T02:04:35.733Z,100.00
2023-05-15T02:07:04.480Z,100.00
2023-05-15T02:09:33.099Z,100.00
2023-05-15T02:12:03.487Z,100.00
2023-05-15T02:14:31.688Z,100.00
2023-05-15T02:16:59.227Z,100.00
2023-05-15T02:19:27.473Z,100.00
2023-05-15T02:21:54.518Z,100.00
2023-05-15T02:24:21.581Z,100.00
2023-05-15T02:27:03.988Z,100.00
2023-05-15T02:30:23.650Z,100.00
2023-05-15T02:33:12.882Z,100.00
2023-05-15T02:36:03.491Z,100.00
2023-05-15T02:38:38.218Z,100.00
2023-05-15T02:41:07.433Z,100.00
2023-05-15T02:43:36.870Z,100.00
2023-05-15T02:46:07.251Z,100.00
2023-05-15T02:48:42.520Z,100.00
2023-05-15T02:51:10.789Z,100.00
2023-05-15T02:53:42.122Z,100.00
2023-05-15T02:56:10.017Z,100.00
2023-05-15T02:58:38.282Z,100.00
2023-05-15T03:01:06.280Z,100.00
2023-05-15T03:03:33.909Z,100.00
2023-05-15T03:06:01.068Z,100.00
2023-05-15T03:08:29.065Z,100.00
2023-05-15T03:10:56.155Z,100.00
2023-05-15T03:13:23.182Z,100.00
2023-05-15T03:15:50.358Z,100.00
2023-05-15T03:18:19.033Z,100.00
2023-05-15T03:20:49.023Z,100.00
2023-05-15T03:23:16.467Z,100.00
2023-05-15T03:25:43.571Z,100.00
2023-05-15T03:28:11.589Z,100.00
2023-05-15T03:30:39.169Z,100.00
2023-05-15T03:33:06.669Z,100.00
2023-05-15T03:35:34.714Z,100.00
2023-05-15T03:38:02.704Z,100.00
2023-05-15T03:40:30.518Z,100.00
2023-05-15T03:42:58.355Z,100.00
2023-05-15T03:45:25.773Z,100.00
2023-05-15T03:47:53.403Z,100.00
2023-05-15T03:50:20.974Z,100.00
2023-05-15T03:52:48.178Z,100.00
2023-05-15T03:55:15.337Z,100.00
2023-05-15T03:57:42.854Z,100.00
2023-05-15T04:00:11.255Z,100.00
2023-05-15T04:02:41.387Z,100.00
2023-05-15T04:05:09.575Z,100.00
2023-05-15T04:07:37.744Z,100.00
2023-05-15T04:10:05.562Z,100.00
2023-05-15T04:12:34.830Z,100.00
2023-05-15T04:15:22.471Z,100.00
2023-05-15T04:17:52.137Z,100.00
2023-05-15T04:20:24.377Z,100.00
2023-05-15T04:22:52.632Z,100.00
2023-05-15T04:25:20.539Z,100.00
2023-05-15T04:27:49.221Z,100.00
2023-05-15T04:30:16.734Z,100.00
2023-05-15T04:32:44.439Z,100.00
2023-05-15T04:35:13.558Z,100.00
2023-05-15T04:37:42.329Z,100.00
2023-05-15T04:40:10.452Z,100.00
2023-05-15T04:42:39.464Z,100.00
2023-05-15T04:45:07.815Z,100.00
2023-05-15T04:47:35.619Z,100.00
2023-05-15T04:50:03.089Z,100.00
2023-05-15T04:52:30.201Z,100.00
2023-05-15T04:54:57.210Z,100.00
2023-05-15T04:57:25.634Z,100.00
2023-05-15T04:59:52.776Z,100.00
2023-05-15T05:02:23.875Z,100.00
2023-05-15T05:04:51.249Z,100.00
2023-05-15T05:07:18.724Z,100.00
2023-05-15T05:09:46.156Z,100.00
2023-05-15T05:12:13.181Z,100.00
2023-05-15T05:14:42.215Z,100.00
2023-05-15T05:17:09.901Z,100.00
2023-05-15T05:19:37.447Z,100.00
2023-05-15T05:22:05.977Z,100.00
2023-05-15T05:24:33.789Z,100.00
2023-05-15T05:27:00.869Z,100.00
2023-05-15T05:29:27.920Z,100.00
2023-05-15T05:31:55.040Z,100.00
2023-05-15T05:34:22.932Z,100.00
2023-05-15T05:36:50.169Z,100.00
2023-05-15T05:39:17.557Z,100.00
2023-05-15T05:41:45.209Z,100.00
2023-05-15T05:44:12.661Z,100.00
2023-05-15T05:46:39.657Z,100.00
2023-05-15T05:49:06.747Z,100.00
2023-05-15T05:51:39.176Z,100.00
2023-05-15T05:54:06.304Z,100.00
2023-05-15T05:56:33.504Z,100.00
2023-05-15T05:59:02.052Z,100.00
2023-05-15T06:01:29.618Z,100.00
2023-05-15T06:03:57.542Z,100.00
2023-05-15T06:06:25.248Z,100.00
2023-05-15T06:08:54.858Z,100.00
2023-05-15T06:11:25.423Z,100.00
2023-05-15T06:13:52.806Z,100.00
2023-05-15T06:16:20.028Z,100.00
2023-05-15T06:18:47.612Z,100.00
2023-05-15T06:21:14.711Z,100.00
2023-05-15T06:23:41.836Z,100.00
2023-05-15T06:26:08.901Z,100.00
2023-05-15T06:28:36.358Z,100.00
2023-05-15T06:31:03.937Z,100.00
2023-05-15T06:33:31.865Z,100.00
2023-05-15T06:35:59.226Z,100.00
2023-05-15T06:38:26.617Z,100.00
2023-05-15T06:40:53.770Z,100.00
2023-05-15T06:43:20.818Z,100.00
2023-05-15T06:45:47.817Z,100.00
2023-05-15T06:48:14.911Z,100.00
2023-05-15T06:50:41.925Z,100.00
2023-05-15T06:53:09.351Z,100.00
2023-05-15T06:55:38.112Z,100.00
2023-05-15T06:58:05.623Z,100.00
2023-05-15T07:00:32.768Z,100.00
2023-05-15T07:02:59.833Z,100.00
2023-05-15T07:05:27.270Z,100.00
2023-05-15T07:07:54.815Z,100.00
2023-05-15T07:10:21.853Z,100.00
2023-05-15T07:12:48.925Z,100.00
2023-05-15T07:15:17.664Z,100.00
2023-05-15T07:17:45.296Z,100.00
2023-05-15T07:20:13.116Z,100.00
2023-05-15T07:22:51.895Z,100.00
2023-05-15T07:25:24.336Z,100.00
2023-05-15T07:27:51.983Z,100.00
2023-05-15T07:30:19.488Z,100.00
2023-05-15T07:32:46.595Z,100.00
2023-05-15T07:35:13.713Z,100.00
2023-05-15T07:37:41.546Z,100.00
2023-05-15T07:40:09.310Z,100.00
2023-05-15T07:42:36.749Z,100.00
2023-05-15T07:45:04.545Z,100.00
2023-05-15T07:47:31.585Z,100.00
2023-05-15T07:49:58.904Z,100.00
2023-05-15T07:52:26.805Z,100.00
2023-05-15T07:54:54.021Z,100.00
2023-05-15T07:57:21.056Z,100.00
2023-05-15T07:59:48.076Z,100.00
2023-05-15T08:02:15.447Z,100.00
2023-05-15T08:04:42.597Z,100.00
2023-05-15T08:07:09.723Z,100.00
2023-05-15T08:09:36.697Z,100.00
2023-05-15T08:12:21.153Z,100.00
2023-05-15T08:14:53.817Z,100.00
2023-05-15T08:17:21.999Z,100.00
2023-05-15T08:19:49.677Z,100.00
2023-05-15T08:22:17.147Z,100.00
2023-05-15T08:24:45.164Z,100.00
2023-05-15T08:27:12.251Z,100.00
2023-05-15T08:29:40.164Z,100.00
2023-05-15T08:32:09.242Z,100.00
2023-05-15T08:34:36.399Z,100.00
2023-05-15T08:37:04.733Z,100.00
2023-05-15T08:39:31.856Z,100.00
2023-05-15T08:42:19.632Z,100.00
2023-05-15T08:44:47.010Z,100.00
2023-05-15T08:47:19.601Z,100.00
2023-05-15T08:49:52.867Z,100.00
2023-05-15T08:52:20.208Z,100.00
2023-05-15T08:54:53.389Z,100.00
2023-05-15T08:57:21.089Z,100.00
2023-05-15T08:59:49.600Z,100.00
2023-05-15T09:02:17.257Z,100.00
2023-05-15T09:04:44.845Z,100.00
2023-05-15T09:07:14.508Z,100.00
2023-05-15T09:09:43.453Z,100.00
2023-05-15T09:12:17.470Z,100.00
2023-05-15T09:14:44.779Z,100.00
2023-05-15T09:17:12.407Z,100.00
2023-05-15T09:19:43.170Z,100.00
2023-05-15T09:22:23.540Z,100.00
2023-05-15T09:24:53.170Z,100.00
2023-05-15T09:27:20.868Z,100.00
2023-05-15T09:29:47.892Z,100.00
2023-05-15T09:32:15.994Z,100.00
2023-05-15T09:34:45.948Z,100.00
2023-05-15T09:37:33.222Z,100.00
2023-05-15T09:40:11.810Z,100.00
2023-05-15T09:42:39.017Z,100.00
2023-05-15T09:45:07.008Z,100.00
2023-05-15T09:47:34.486Z,100.00
2023-05-15T09:50:01.958Z,100.00
2023-05-15T09:52:30.206Z,100.00
2023-05-15T09:54:58.029Z,100.00
2023-05-15T09:57:25.241Z,100.00
2023-05-15T09:59:52.287Z,100.00
2023-05-15T10:02:34.733Z,100.00
2023-05-15T10:05:02.268Z,100.00
2023-05-15T10:07:35.583Z,100.00
2023-05-15T10:10:04.649Z,100.00
2023-05-15T10:12:32.602Z,100.00
2023-05-15T10:15:01.370Z,100.00
2023-05-15T10:17:29.490Z,100.00
2023-05-15T10:20:00.855Z,100.00
2023-05-15T10:22:30.960Z,100.00
2023-05-15T10:25:24.253Z,100.00
2023-05-15T10:27:52.777Z,100.00
2023-05-15T10:30:20.568Z,100.00
2023-05-15T10:32:49.528Z,100.00
2023-05-15T10:35:17.902Z,100.00
2023-05-15T10:37:48.387Z,100.00
2023-05-15T10:40:17.330Z,100.00
2023-05-15T10:42:46.580Z,100.00
2023-05-15T10:45:14.272Z,100.00
2023-05-15T10:47:43.683Z,100.00
2023-05-15T10:50:13.367Z,100.00
2023-05-15T10:52:40.904Z,100.00
2023-05-15T10:55:15.333Z,100.00
2023-05-15T10:57:43.059Z,100.00
2023-05-15T11:00:31.393Z,100.00
2023-05-15T11:02:59.323Z,100.00
2023-05-15T11:05:26.927Z,100.00
2023-05-15T11:08:15.824Z,100.00
2023-05-15T11:10:42.885Z,88.38
2023-05-15T11:13:09.953Z,90.38
2023-05-15T11:15:48.191Z,70.47
2023-05-15T11:18:15.747Z,75.98
2023-05-15T11:20:54.375Z,89.66
2023-05-15T11:23:22.923Z,100.00
2023-05-15T11:25:55.550Z,100.00
2023-05-15T11:28:24.541Z,100.00
2023-05-15T11:31:00.541Z,100.00
2023-05-15T11:33:31.713Z,100.00
2023-05-15T11:36:00.738Z,100.00
2023-05-15T11:38:28.377Z,100.00
2023-05-15T11:41:03.472Z,100.00
2023-05-15T11:43:36.533Z,100.00
2023-05-15T11:46:03.563Z,100.00
2023-05-15T11:48:44.153Z,100.00
2023-05-15T11:51:24.902Z,100.00
2023-05-15T11:53:56.394Z,100.00
2023-05-15T11:56:28.231Z,100.00
2023-05-15T11:59:01.237Z,100.00
2023-05-15T12:01:29.940Z,100.00
2023-05-15T12:03:57.058Z,100.00
2023-05-15T12:06:24.584Z,100.00
2023-05-15T12:08:53.179Z,85.94
2023-05-15T12:11:24.696Z,100.00
2023-05-15T12:13:56.060Z,89.33
2023-05-15T12:16:27.483Z,91.54
2023-05-15T12:18:57.302Z,87.40
2023-05-15T12:21:27.200Z,93.08
2023-05-15T12:24:07.258Z,94.90
2023-05-15T12:26:36.115Z,86.44
2023-05-15T12:29:04.562Z,84.25
2023-05-15T12:31:34.348Z,88.03
2023-05-15T12:34:02.082Z,87.06
2023-05-15T12:36:32.125Z,78.37
2023-05-15T12:39:05.915Z,100.00
2023-05-15T12:41:33.153Z,100.00
2023-05-15T12:44:00.395Z,100.00
2023-05-15T12:46:30.697Z,100.00
2023-05-15T12:49:01.706Z,100.00
2023-05-15T12:51:29.879Z,89.83
2023-05-15T12:54:00.121Z,87.28
2023-05-15T12:56:29.996Z,68.90
2023-05-15T12:58:57.440Z,65.08
2023-05-15T13:01:24.558Z,82.20
2023-05-15T13:03:52.396Z,81.03
2023-05-15T13:06:19.954Z,90.03
2023-05-15T13:08:48.310Z,81.82
2023-05-15T13:11:16.778Z,100.00
2023-05-15T13:13:48.863Z,96.47
2023-05-15T13:16:37.004Z,83.78
2023-05-15T13:19:04.621Z,77.39
2023-05-15T13:21:31.819Z,72.42
2023-05-15T13:23:59.332Z,72.67
2023-05-15T13:26:26.472Z,71.68
2023-05-15T13:28:53.451Z,75.58
2023-05-15T13:31:20.537Z,70.96
2023-05-15T13:33:48.250Z,68.26
2023-05-15T13:39:00.174Z,69.13
2023-05-15T13:41:27.843Z,57.28
2023-05-15T13:43:54.896Z,60.23
2023-05-15T13:46:22.293Z,66.43
2023-05-15T13:48:49.755Z,59.36
2023-05-15T13:51:16.750Z,66.01
2023-05-15T13:53:43.840Z,63.44
2023-05-15T13:56:10.899Z,72.38
2023-05-15T13:58:38.078Z,70.08
2023-05-15T14:01:07.396Z,70.96
2023-05-15T14:03:34.928Z,63.73
2023-05-15T14:06:02.047Z,65.01
2023-05-15T14:08:29.091Z,67.64
2023-05-15T14:10:56.422Z,67.08
2023-05-15T14:13:24.399Z,67.50
2023-05-15T14:15:51.508Z,66.63
2023-05-15T14:18:18.505Z,66.56
2023-05-15T14:20:45.674Z,63.86
2023-05-15T14:23:12.755Z,70.67
2023-05-15T14:25:41.064Z,68.42
2023-05-15T14:28:08.087Z,74.05
2023-05-15T14:30:35.609Z,72.38
2023-05-15T14:33:02.737Z,73.84
2023-05-15T14:35:29.956Z,68.29
2023-05-15T14:37:57.344Z,67.17
2023-05-15T14:40:25.006Z,67.29
2023-05-15T14:42:52.206Z,69.29
2023-05-15T14:45:19.272Z,75.80
2023-05-15T14:47:46.336Z,76.05
2023-05-15T14:50:13.754Z,68.91
2023-05-15T14:52:40.746Z,67.26
2023-05-15T14:55:09.787Z,63.89
2023-05-15T14:57:38.144Z,64.66
2023-05-15T15:00:06.837Z,62.41
2023-05-15T15:02:34.316Z,72.98
2023-05-15T15:05:04.757Z,76.83
2023-05-15T15:08:07.994Z,80.82
2023-05-15T15:10:37.353Z,80.73
2023-05-15T15:13:05.973Z,86.58
2023-05-15T15:15:34.698Z,78.02
2023-05-15T15:18:02.170Z,74.80
2023-05-15T15:20:29.457Z,74.75
2023-05-15T15:22:56.573Z,95.66
2023-05-15T15:25:24.260Z,87.36
2023-05-15T15:27:51.288Z,86.63
2023-05-15T15:30:18.345Z,80.19
2023-05-15T15:32:48.409Z,77.77
2023-05-15T15:35:15.520Z,71.54
2023-05-15T15:37:42.611Z,77.76
2023-05-15T15:40:09.826Z,77.94
2023-05-15T15:42:37.009Z,78.99
2023-05-15T15:45:04.838Z,84.76
2023-05-15T15:47:32.302Z,84.01
2023-05-15T15:50:00.032Z,83.19
2023-05-15T15:52:28.208Z,73.01
2023-05-15T15:54:55.681Z,84.12
2023-05-15T15:57:23.315Z,77.02
2023-05-15T15:59:50.560Z,74.70
2023-05-15T16:02:17.824Z,89.49
2023-05-15T16:04:44.963Z,73.82
2023-05-15T16:07:12.134Z,78.22
2023-05-15T16:09:39.250Z,87.62
2023-05-15T16:12:06.546Z,87.85
2023-05-15T16:14:33.628Z,80.66
2023-05-15T16:17:02.689Z,76.94
2023-05-15T16:19:30.457Z,89.29
2023-05-15T16:21:57.868Z,86.24
2023-05-15T16:24:24.979Z,76.47
2023-05-15T16:26:52.157Z,79.59
2023-05-15T16:29:19.218Z,70.57
2023-05-15T16:31:47.061Z,83.01
2023-05-15T16:34:14.393Z,73.35
2023-05-15T16:36:41.403Z,69.67
2023-05-15T16:39:08.536Z,88.31
2023-05-15T16:41:35.588Z,74.81
2023-05-15T16:44:03.414Z,96.13
2023-05-15T16:46:30.501Z,87.26
2023-05-15T16:48:57.720Z,88.28
2023-05-15T16:51:24.704Z,79.28
2023-05-15T16:53:53.859Z,82.22
2023-05-15T16:56:21.302Z,89.10
2023-05-15T16:58:48.295Z,80.26
2023-05-15T17:01:15.417Z,86.32
2023-05-15T17:03:44.033Z,82.08
2023-05-15T17:06:11.203Z,89.02
2023-05-15T17:08:38.231Z,81.67
2023-05-15T17:11:05.733Z,88.79
2023-05-15T17:13:32.749Z,87.08
2023-05-15T17:15:59.807Z,100.00
2023-05-15T17:18:27.259Z,100.00
2023-05-15T17:20:54.337Z,98.08
2023-05-15T17:23:23.072Z,92.54
2023-05-15T17:25:50.210Z,93.94
2023-05-15T17:28:17.279Z,100.00
2023-05-15T17:30:44.726Z,100.00
2023-05-15T17:33:11.787Z,93.98
2023-05-15T17:35:39.309Z,100.00
2023-05-15T17:38:06.455Z,85.42
2023-05-15T17:40:33.940Z,93.75
2023-05-15T17:43:00.956Z,89.80
2023-05-15T17:45:28.256Z,88.35
2023-05-15T17:48:02.488Z,82.14
2023-05-15T17:50:29.865Z,91.59
2023-05-15T17:52:57.055Z,98.54
2023-05-15T17:55:24.308Z,91.44
2023-05-15T17:57:52.316Z,94.53
2023-05-15T18:00:19.583Z,90.69
2023-05-15T18:02:46.841Z,99.26
2023-05-15T18:05:14.017Z,96.68
2023-05-15T18:07:42.377Z,94.16
2023-05-15T18:10:10.115Z,89.29
2023-05-15T18:12:37.521Z,83.24
2023-05-15T18:15:05.079Z,88.13
2023-05-15T18:17:32.491Z,93.78
2023-05-15T18:19:59.967Z,89.57
2023-05-15T18:22:27.160Z,85.64
2023-05-15T18:24:54.408Z,87.48
2023-05-15T18:27:21.415Z,98.93
2023-05-15T18:29:48.968Z,100.00
2023-05-15T18:32:16.150Z,93.93
2023-05-15T18:34:43.139Z,100.00
2023-05-15T18:37:10.142Z,100.00
2023-05-15T18:39:38.593Z,99.97
2023-05-15T18:42:07.109Z,100.00
2023-05-15T18:44:35.792Z,99.73
2023-05-15T18:47:03.375Z,95.83
2023-05-15T18:49:30.564Z,100.00
2023-05-15T18:51:57.978Z,94.98
2023-05-15T18:54:25.351Z,85.86
2023-05-15T18:56:52.382Z,90.96
2023-05-15T18:59:20.235Z,94.81
2023-05-15T19:01:49.110Z,91.71
2023-05-15T19:04:16.292Z,89.70
2023-05-15T19:06:44.317Z,89.45
2023-05-15T19:09:11.925Z,88.74
2023-05-15T19:11:38.962Z,82.06
2023-05-15T19:14:06.002Z,100.00
2023-05-15T19:16:36.112Z,100.00
2023-05-15T19:19:03.338Z,100.00
2023-05-15T19:21:31.039Z,88.94
2023-05-15T19:23:58.451Z,100.00
2023-05-15T19:26:25.518Z,92.64
2023-05-15T19:28:53.048Z,97.17
2023-05-15T19:31:30.685Z,100.00
2023-05-15T19:34:00.364Z,100.00
2023-05-15T19:36:27.867Z,100.00
2023-05-15T19:38:54.989Z,83.90
2023-05-15T19:41:22.738Z,96.55
2023-05-15T19:43:50.977Z,100.00
2023-05-15T19:46:19.189Z,100.00
2023-05-15T19:48:46.406Z,100.00
2023-05-15T19:51:13.459Z,92.56
2023-05-15T19:53:43.881Z,100.00
2023-05-15T19:56:10.981Z,100.00
2023-05-15T19:58:38.149Z,100.00
2023-05-15T20:01:05.483Z,100.00
2023-05-15T20:03:33.346Z,100.00
2023-05-15T20:06:02.571Z,100.00
2023-05-15T20:08:30.208Z,100.00
2023-05-15T20:10:57.858Z,100.00
2023-05-15T20:13:24.941Z,100.00
2023-05-15T20:15:56.966Z,100.00
2023-05-15T20:18:30.855Z,100.00
2023-05-15T20:20:59.307Z,100.00
2023-05-15T20:23:26.514Z,94.50
2023-05-15T20:25:53.524Z,100.00
2023-05-15T20:28:24.815Z,100.00
2023-05-15T20:30:52.538Z,100.00
2023-05-15T20:33:19.591Z,100.00
2023-05-15T20:35:47.073Z,100.00
2023-05-15T20:38:14.520Z,100.00
2023-05-15T20:40:41.594Z,100.00
2023-05-15T20:43:09.693Z,100.00
2023-05-15T20:45:36.925Z,100.00
2023-05-15T20:48:05.328Z,100.00
2023-05-15T20:50:32.385Z,100.00
2023-05-15T20:53:04.699Z,100.00
2023-05-15T20:55:31.910Z,100.00
2023-05-15T20:57:58.890Z,100.00
2023-05-15T21:00:26.269Z,100.00
2023-05-15T21:02:53.558Z,100.00
2023-05-15T21:05:20.778Z,100.00
2023-05-15T21:07:47.936Z,100.00
2023-05-15T21:10:14.956Z,100.00
2023-05-15T21:12:42.488Z,100.00
2023-05-15T21:15:11.314Z,100.00
2023-05-15T21:17:40.221Z,100.00
2023-05-15T21:20:08.346Z,100.00
2023-05-15T21:22:35.425Z,100.00
2023-05-15T21:25:02.517Z,100.00
2023-05-15T21:27:29.936Z,100.00
2023-05-15T21:29:57.284Z,100.00
2023-05-15T21:32:24.880Z,100.00
2023-05-15T21:34:52.048Z,100.00
2023-05-15T21:37:19.252Z,100.00
2023-05-15T21:39:46.226Z,100.00
2023-05-15T21:42:13.182Z,100.00
2023-05-15T21:44:40.416Z,100.00
2023-05-15T21:47:07.401Z,100.00
2023-05-15T21:49:34.388Z,100.00
2023-05-15T21:52:01.331Z,100.00
2023-05-15T21:54:28.300Z,100.00
2023-05-15T21:56:55.325Z,100.00
2023-05-15T21:59:22.245Z,100.00
2023-05-15T22:01:49.205Z,100.00
2023-05-15T22:04:16.371Z,100.00
2023-05-15T22:06:43.588Z,100.00
2023-05-15T22:09:10.626Z,100.00
2023-05-15T22:11:37.779Z,100.00
2023-05-15T22:14:05.953Z,100.00
2023-05-15T22:16:33.184Z,100.00
2023-05-15T22:19:00.292Z,100.00
2023-05-15T22:21:27.466Z,100.00
2023-05-15T22:23:54.490Z,100.00
2023-05-15T22:26:22.079Z,100.00
2023-05-15T22:28:55.992Z,100.00
2023-05-15T22:31:23.434Z,100.00
2023-05-15T22:33:52.712Z,100.00
2023-05-15T22:36:19.858Z,100.00
2023-05-15T22:38:46.846Z,100.00
2023-05-15T22:41:13.852Z,100.00
2023-05-15T22:43:40.913Z,100.00
2023-05-15T22:46:07.909Z,100.00
2023-05-15T22:48:35.465Z,100.00
2023-05-15T22:51:02.690Z,100.00
2023-05-15T22:53:29.730Z,100.00
2023-05-15T22:55:56.706Z,100.00
2023-05-15T22:58:23.676Z,100.00
2023-05-15T23:00:51.116Z,100.00
2023-05-15T23:03:18.231Z,100.00
2023-05-15T23:05:46.373Z,100.00
2023-05-15T23:08:13.321Z,100.00
2023-05-15T23:10:40.316Z,100.00
2023-05-15T23:13:07.266Z,100.00
2023-05-15T23:15:34.442Z,100.00
2023-05-15T23:18:01.572Z,100.00
2023-05-15T23:20:28.921Z,100.00
2023-05-15T23:22:56.260Z,100.00
2023-05-15T23:25:23.266Z,100.00
2023-05-15T23:27:50.280Z,100.00
2023-05-15T23:30:17.510Z,100.00
2023-05-15T23:32:44.818Z,100.00
2023-05-15T23:35:11.826Z,100.00
2023-05-15T23:37:38.825Z,100.00
2023-05-15T23:40:06.648Z,100.00
2023-05-15T23:42:33.682Z,100.00
2023-05-15T23:45:00.717Z,100.00
2023-05-15T23:47:28.014Z,100.00
2023-05-15T23:49:55.018Z,100.00
2023-05-15T23:52:22.535Z,100.00
2023-05-15T23:54:49.689Z,100.00
2023-05-15T23:57:17.122Z,100.00
2023-05-15T23:59:44.395Z,100.00
